Starr, South Carolina
Current Conditions -  °F | °C
As of 7:56 AM on Sunday 21 Dec 2014 (Local Time) from KAND Reporting Station
Overcast Overcast  
Wind Chill: 39°   Ceiling: 1800
Heat Index: 43°   Visibility: 8mi
Dew Point: 39°   Wind: 6mph
Humidity: 86%   Direction: 90°E
Pressure: 30.24"   Gusts: NA
Location:  34.38°N, 82.7°W
Report Text: KAND 211256Z AUTO 09005KT 8SM OVC018 06/04 A3024 RMK AO2 SLP243 T00610039
Loading
Personal Weather Stations






























Interactive Weather Map New forecast layout! Learn more

10-Day Weather Forecast

Advertisements
Track Severe Weather on mobile